sensor_id;sensor_type;location;lat;lon;timestamp;temperature;humidity
64796;DHT22;51229;51.980;6.722;2022-11-20T00:00:44;-2.70;99.90
64796;DHT22;51229;51.980;6.722;2022-11-20T00:03:09;-2.70;99.90
64796;DHT22;51229;51.980;6.722;2022-11-20T00:05:35;-2.70;99.90
64796;DHT22;51229;51.980;6.722;2022-11-20T00:08:00;-2.80;99.90
64796;DHT22;51229;51.980;6.722;2022-11-20T00:10:26;-2.80;99.90
64796;DHT22;51229;51.980;6.722;2022-11-20T00:12:52;-2.90;99.90
64796;DHT22;51229;51.980;6.722;2022-11-20T00:15:17;-2.90;99.90
64796;DHT22;51229;51.980;6.722;2022-11-20T00:17:43;-2.90;99.90
64796;DHT22;51229;51.980;6.722;2022-11-20T00:20:09;-2.80;99.90
64796;DHT22;51229;51.980;6.722;2022-11-20T00:22:35;-2.90;99.90
64796;DHT22;51229;51.980;6.722;2022-11-20T00:25:01;-2.90;99.90
64796;DHT22;51229;51.980;6.722;2022-11-20T00:27:26;-2.90;99.90
64796;DHT22;51229;51.980;6.722;2022-11-20T00:29:52;-2.90;99.90
64796;DHT22;51229;51.980;6.722;2022-11-20T00:32:17;-3.20;99.90
64796;DHT22;51229;51.980;6.722;2022-11-20T00:34:43;-3.30;99.90
64796;DHT22;51229;51.980;6.722;2022-11-20T00:37:09;-3.20;99.90
64796;DHT22;51229;51.980;6.722;2022-11-20T00:39:34;-3.00;99.90
64796;DHT22;51229;51.980;6.722;2022-11-20T00:42:00;-2.90;99.90
64796;DHT22;51229;51.980;6.722;2022-11-20T00:44:26;-2.90;99.90
64796;DHT22;51229;51.980;6.722;2022-11-20T00:46:53;-3.10;99.90
64796;DHT22;51229;51.980;6.722;2022-11-20T00:49:19;-3.10;99.90
64796;DHT22;51229;51.980;6.722;2022-11-20T00:51:45;-3.10;99.90
64796;DHT22;51229;51.980;6.722;2022-11-20T00:54:11;-3.00;99.90
64796;DHT22;51229;51.980;6.722;2022-11-20T00:56:36;-3.40;99.90
64796;DHT22;51229;51.980;6.722;2022-11-20T00:59:02;-4.00;99.90
64796;DHT22;51229;51.980;6.722;2022-11-20T01:01:28;-4.10;99.90
64796;DHT22;51229;51.980;6.722;2022-11-20T01:03:59;-4.00;99.90
64796;DHT22;51229;51.980;6.722;2022-11-20T01:06:28;-3.60;99.90
64796;DHT22;51229;51.980;6.722;2022-11-20T01:08:56;-3.50;99.90
64796;DHT22;51229;51.980;6.722;2022-11-20T01:11:28;-3.20;99.90
64796;DHT22;51229;51.980;6.722;2022-11-20T01:13:55;-3.20;99.90
64796;DHT22;51229;51.980;6.722;2022-11-20T01:16:27;-3.30;99.90
64796;DHT22;51229;51.980;6.722;2022-11-20T01:18:56;-3.20;99.90
64796;DHT22;51229;51.980;6.722;2022-11-20T01:21:24;-3.10;99.90
64796;DHT22;51229;51.980;6.722;2022-11-20T01:23:51;-3.00;99.90
64796;DHT22;51229;51.980;6.722;2022-11-20T01:26:21;-3.00;99.90
64796;DHT22;51229;51.980;6.722;2022-11-20T01:28:48;-3.00;99.90
64796;DHT22;51229;51.980;6.722;2022-11-20T01:31:25;-3.00;99.90
64796;DHT22;51229;51.980;6.722;2022-11-20T01:33:55;-3.00;99.90
64796;DHT22;51229;51.980;6.722;2022-11-20T01:36:22;-3.10;99.90
64796;DHT22;51229;51.980;6.722;2022-11-20T01:38:52;-3.10;99.90
64796;DHT22;51229;51.980;6.722;2022-11-20T01:41:19;-3.10;99.90
64796;DHT22;51229;51.980;6.722;2022-11-20T01:44:04;-3.10;99.90
64796;DHT22;51229;51.980;6.722;2022-11-20T01:46:32;-3.10;99.90
64796;DHT22;51229;51.980;6.722;2022-11-20T01:49:02;-3.10;99.90
64796;DHT22;51229;51.980;6.722;2022-11-20T01:54:02;-3.10;99.90
64796;DHT22;51229;51.980;6.722;2022-11-20T01:56:32;-3.30;99.90
64796;DHT22;51229;51.980;6.722;2022-11-20T01:59:02;-3.30;99.90
64796;DHT22;51229;51.980;6.722;2022-11-20T02:01:29;-3.30;99.90
64796;DHT22;51229;51.980;6.722;2022-11-20T02:03:55;-3.30;99.90
64796;DHT22;51229;51.980;6.722;2022-11-20T02:06:52;-3.30;99.90
64796;DHT22;51229;51.980;6.722;2022-11-20T02:09:18;-3.40;99.90
64796;DHT22;51229;51.980;6.722;2022-11-20T02:11:44;-3.30;99.90
64796;DHT22;51229;51.980;6.722;2022-11-20T02:14:10;-3.20;99.90
64796;DHT22;51229;51.980;6.722;2022-11-20T02:16:47;-3.20;99.90
64796;DHT22;51229;51.980;6.722;2022-11-20T02:19:26;-3.30;99.90
64796;DHT22;51229;51.980;6.722;2022-11-20T02:24:23;-3.60;99.90
64796;DHT22;51229;51.980;6.722;2022-11-20T02:26:56;-3.60;99.90
64796;DHT22;51229;51.980;6.722;2022-11-20T02:29:26;-3.50;99.90
64796;DHT22;51229;51.980;6.722;2022-11-20T02:31:55;-3.40;99.90
64796;DHT22;51229;51.980;6.722;2022-11-20T02:34:21;-3.30;99.90
64796;DHT22;51229;51.980;6.722;2022-11-20T02:36:48;-3.30;99.90
64796;DHT22;51229;51.980;6.722;2022-11-20T02:39:15;-3.30;99.90
64796;DHT22;51229;51.980;6.722;2022-11-20T02:41:42;-3.30;99.90
64796;DHT22;51229;51.980;6.722;2022-11-20T02:44:08;-3.40;99.90
64796;DHT22;51229;51.980;6.722;2022-11-20T02:46:34;-3.40;99.90
64796;DHT22;51229;51.980;6.722;2022-11-20T02:49:01;-3.40;99.90
64796;DHT22;51229;51.980;6.722;2022-11-20T02:51:27;-3.40;99.90
64796;DHT22;51229;51.980;6.722;2022-11-20T02:53:53;-3.40;99.90
64796;DHT22;51229;51.980;6.722;2022-11-20T02:56:19;-3.40;99.90
64796;DHT22;51229;51.980;6.722;2022-11-20T02:58:45;-3.40;99.90
64796;DHT22;51229;51.980;6.722;2022-11-20T03:01:11;-3.50;99.90
64796;DHT22;51229;51.980;6.722;2022-11-20T03:03:37;-3.60;99.90
64796;DHT22;51229;51.980;6.722;2022-11-20T03:06:03;-4.30;99.90
64796;DHT22;51229;51.980;6.722;2022-11-20T03:08:29;-4.20;99.90
64796;DHT22;51229;51.980;6.722;2022-11-20T03:10:54;-3.90;99.90
64796;DHT22;51229;51.980;6.722;2022-11-20T03:13:20;-3.80;99.90
64796;DHT22;51229;51.980;6.722;2022-11-20T03:15:46;-3.70;99.90
64796;DHT22;51229;51.980;6.722;2022-11-20T03:18:11;-3.70;99.90
64796;DHT22;51229;51.980;6.722;2022-11-20T03:20:39;-3.70;99.90
64796;DHT22;51229;51.980;6.722;2022-11-20T03:23:04;-3.60;99.90
64796;DHT22;51229;51.980;6.722;2022-11-20T03:25:30;-3.60;99.90
64796;DHT22;51229;51.980;6.722;2022-11-20T03:27:56;-3.70;99.90
64796;DHT22;51229;51.980;6.722;2022-11-20T03:30:21;-3.70;99.90
64796;DHT22;51229;51.980;6.722;2022-11-20T03:32:47;-3.80;99.90
64796;DHT22;51229;51.980;6.722;2022-11-20T03:35:13;-3.70;99.90
64796;DHT22;51229;51.980;6.722;2022-11-20T03:37:39;-3.70;99.90
64796;DHT22;51229;51.980;6.722;2022-11-20T03:40:05;-3.80;99.90
64796;DHT22;51229;51.980;6.722;2022-11-20T03:42:31;-3.80;99.90
64796;DHT22;51229;51.980;6.722;2022-11-20T03:45:18;-3.80;99.90
64796;DHT22;51229;51.980;6.722;2022-11-20T03:47:44;-3.90;99.90
64796;DHT22;51229;51.980;6.722;2022-11-20T03:50:12;-3.90;99.90
64796;DHT22;51229;51.980;6.722;2022-11-20T03:52:41;-3.90;99.90
64796;DHT22;51229;51.980;6.722;2022-11-20T03:55:07;-3.90;99.90
64796;DHT22;51229;51.980;6.722;2022-11-20T03:57:33;-3.90;99.90
64796;DHT22;51229;51.980;6.722;2022-11-20T03:59:59;-3.90;99.90
64796;DHT22;51229;51.980;6.722;2022-11-20T04:02:24;-4.20;99.90
64796;DHT22;51229;51.980;6.722;2022-11-20T04:04:50;-4.20;99.90
64796;DHT22;51229;51.980;6.722;2022-11-20T04:07:16;-4.10;99.90
64796;DHT22;51229;51.980;6.722;2022-11-20T04:09:41;-4.00;99.90
64796;DHT22;51229;51.980;6.722;2022-11-20T04:12:07;-4.10;99.90
64796;DHT22;51229;51.980;6.722;2022-11-20T04:14:33;-4.10;99.90
64796;DHT22;51229;51.980;6.722;2022-11-20T04:16:58;-4.00;99.90
64796;DHT22;51229;51.980;6.722;2022-11-20T04:19:24;-4.10;99.90
64796;DHT22;51229;51.980;6.722;2022-11-20T04:21:49;-4.10;99.90
64796;DHT22;51229;51.980;6.722;2022-11-20T04:24:15;-4.10;99.90
64796;DHT22;51229;51.980;6.722;2022-11-20T04:26:41;-4.10;99.90
64796;DHT22;51229;51.980;6.722;2022-11-20T04:29:10;-4.10;99.90
64796;DHT22;51229;51.980;6.722;2022-11-20T04:31:35;-4.10;99.90
64796;DHT22;51229;51.980;6.722;2022-11-20T04:34:04;-4.10;99.90
64796;DHT22;51229;51.980;6.722;2022-11-20T04:36:30;-4.10;99.90
64796;DHT22;51229;51.980;6.722;2022-11-20T04:38:58;-4.10;99.90
64796;DHT22;51229;51.980;6.722;2022-11-20T04:41:27;-4.10;99.90
64796;DHT22;51229;51.980;6.722;2022-11-20T04:43:56;-4.10;99.90
64796;DHT22;51229;51.980;6.722;2022-11-20T04:46:25;-4.20;99.90
64796;DHT22;51229;51.980;6.722;2022-11-20T04:48:51;-4.40;99.90
64796;DHT22;51229;51.980;6.722;2022-11-20T04:51:17;-4.60;99.90
64796;DHT22;51229;51.980;6.722;2022-11-20T04:53:43;-4.50;99.90
64796;DHT22;51229;51.980;6.722;2022-11-20T04:56:11;-4.40;99.90
64796;DHT22;51229;51.980;6.722;2022-11-20T04:58:37;-4.40;99.90
64796;DHT22;51229;51.980;6.722;2022-11-20T05:01:23;-4.50;99.90
64796;DHT22;51229;51.980;6.722;2022-11-20T05:03:49;-4.40;99.90
64796;DHT22;51229;51.980;6.722;2022-11-20T05:06:17;-4.70;99.90
64796;DHT22;51229;51.980;6.722;2022-11-20T05:08:43;-4.70;99.90
64796;DHT22;51229;51.980;6.722;2022-11-20T05:11:10;-4.60;99.90
64796;DHT22;51229;51.980;6.722;2022-11-20T05:13:37;-4.60;99.90
64796;DHT22;51229;51.980;6.722;2022-11-20T05:16:10;-4.70;99.90
64796;DHT22;51229;51.980;6.722;2022-11-20T05:18:37;-4.70;99.90
64796;DHT22;51229;51.980;6.722;2022-11-20T05:21:03;-4.80;99.90
64796;DHT22;51229;51.980;6.722;2022-11-20T05:23:30;-4.90;99.90
64796;DHT22;51229;51.980;6.722;2022-11-20T05:25:57;-4.80;99.90
64796;DHT22;51229;51.980;6.722;2022-11-20T05:28:23;-4.80;99.90
64796;DHT22;51229;51.980;6.722;2022-11-20T05:30:49;-4.80;99.90
64796;DHT22;51229;51.980;6.722;2022-11-20T05:33:14;-4.80;99.90
64796;DHT22;51229;51.980;6.722;2022-11-20T05:35:40;-5.00;99.90
64796;DHT22;51229;51.980;6.722;2022-11-20T05:38:06;-4.90;99.90
64796;DHT22;51229;51.980;6.722;2022-11-20T05:40:31;-4.80;99.90
64796;DHT22;51229;51.980;6.722;2022-11-20T05:42:57;-4.80;99.90
64796;DHT22;51229;51.980;6.722;2022-11-20T05:45:23;-4.80;99.90
64796;DHT22;51229;51.980;6.722;2022-11-20T05:47:48;-4.80;99.90
64796;DHT22;51229;51.980;6.722;2022-11-20T05:50:14;-4.80;99.90
64796;DHT22;51229;51.980;6.722;2022-11-20T05:52:40;-4.90;99.90
64796;DHT22;51229;51.980;6.722;2022-11-20T05:55:06;-4.90;99.90
64796;DHT22;51229;51.980;6.722;2022-11-20T05:57:32;-5.00;99.90
64796;DHT22;51229;51.980;6.722;2022-11-20T05:59:58;-5.10;99.90
64796;DHT22;51229;51.980;6.722;2022-11-20T06:02:23;-5.00;99.90
64796;DHT22;51229;51.980;6.722;2022-11-20T06:04:49;-5.10;99.90
64796;DHT22;51229;51.980;6.722;2022-11-20T06:07:15;-5.50;99.90
64796;DHT22;51229;51.980;6.722;2022-11-20T06:09:41;-5.50;99.90
64796;DHT22;51229;51.980;6.722;2022-11-20T06:12:07;-5.40;99.90
64796;DHT22;51229;51.980;6.722;2022-11-20T06:14:33;-5.50;99.90
64796;DHT22;51229;51.980;6.722;2022-11-20T06:16:58;-5.40;99.90
64796;DHT22;51229;51.980;6.722;2022-11-20T06:19:24;-5.80;99.90
64796;DHT22;51229;51.980;6.722;2022-11-20T06:21:50;-6.00;99.90
64796;DHT22;51229;51.980;6.722;2022-11-20T06:24:16;-6.30;99.90
64796;DHT22;51229;51.980;6.722;2022-11-20T06:26:42;-6.30;99.90
64796;DHT22;51229;51.980;6.722;2022-11-20T06:29:08;-5.80;99.90
64796;DHT22;51229;51.980;6.722;2022-11-20T06:31:33;-5.60;99.90
64796;DHT22;51229;51.980;6.722;2022-11-20T06:34:04;-5.60;99.90
64796;DHT22;51229;51.980;6.722;2022-11-20T06:36:31;-5.50;99.90
64796;DHT22;51229;51.980;6.722;2022-11-20T06:38:57;-5.40;99.90
64796;DHT22;51229;51.980;6.722;2022-11-20T06:41:23;-5.40;99.90
64796;DHT22;51229;51.980;6.722;2022-11-20T06:43:49;-5.40;99.90
64796;DHT22;51229;51.980;6.722;2022-11-20T06:46:16;-5.30;99.90
64796;DHT22;51229;51.980;6.722;2022-11-20T06:48:42;-5.30;99.90
64796;DHT22;51229;51.980;6.722;2022-11-20T06:51:08;-5.40;99.90
64796;DHT22;51229;51.980;6.722;2022-11-20T06:53:35;-5.50;99.90
64796;DHT22;51229;51.980;6.722;2022-11-20T06:56:00;-5.50;99.90
64796;DHT22;51229;51.980;6.722;2022-11-20T06:58:27;-5.60;99.90
64796;DHT22;51229;51.980;6.722;2022-11-20T07:00:57;-5.60;99.90
64796;DHT22;51229;51.980;6.722;2022-11-20T07:03:23;-5.80;99.90
64796;DHT22;51229;51.980;6.722;2022-11-20T07:05:48;-6.00;99.90
64796;DHT22;51229;51.980;6.722;2022-11-20T07:08:14;-5.90;99.90
64796;DHT22;51229;51.980;6.722;2022-11-20T07:10:40;-5.80;99.90
64796;DHT22;51229;51.980;6.722;2022-11-20T07:13:05;-5.80;99.90
64796;DHT22;51229;51.980;6.722;2022-11-20T07:15:32;-5.80;99.90
64796;DHT22;51229;51.980;6.722;2022-11-20T07:18:01;-5.70;99.90
64796;DHT22;51229;51.980;6.722;2022-11-20T07:20:27;-5.80;99.90
64796;DHT22;51229;51.980;6.722;2022-11-20T07:22:57;-5.90;99.90
64796;DHT22;51229;51.980;6.722;2022-11-20T07:25:23;-6.00;99.90
64796;DHT22;51229;51.980;6.722;2022-11-20T07:27:49;-5.90;99.90
64796;DHT22;51229;51.980;6.722;2022-11-20T07:30:16;-5.70;99.90
64796;DHT22;51229;51.980;6.722;2022-11-20T07:32:41;-5.80;99.90
64796;DHT22;51229;51.980;6.722;2022-11-20T07:35:08;-6.00;99.90
64796;DHT22;51229;51.980;6.722;2022-11-20T07:37:37;-5.70;99.90
64796;DHT22;51229;51.980;6.722;2022-11-20T07:40:02;-5.40;99.90
64796;DHT22;51229;51.980;6.722;2022-11-20T07:42:28;-4.70;99.90
64796;DHT22;51229;51.980;6.722;2022-11-20T07:44:55;-5.10;99.90
64796;DHT22;51229;51.980;6.722;2022-11-20T07:47:20;-6.10;99.90
64796;DHT22;51229;51.980;6.722;2022-11-20T07:49:46;-6.40;99.90
64796;DHT22;51229;51.980;6.722;2022-11-20T07:52:12;-6.20;99.90
64796;DHT22;51229;51.980;6.722;2022-11-20T07:54:37;-6.20;99.90
64796;DHT22;51229;51.980;6.722;2022-11-20T07:57:03;-6.10;99.90
64796;DHT22;51229;51.980;6.722;2022-11-20T07:59:29;-6.00;99.90
64796;DHT22;51229;51.980;6.722;2022-11-20T08:01:55;-6.50;99.90
64796;DHT22;51229;51.980;6.722;2022-11-20T08:04:21;-6.70;99.90
64796;DHT22;51229;51.980;6.722;2022-11-20T08:06:52;-6.80;99.90
64796;DHT22;51229;51.980;6.722;2022-11-20T08:09:17;-6.60;99.90
64796;DHT22;51229;51.980;6.722;2022-11-20T08:11:43;-6.10;99.90
64796;DHT22;51229;51.980;6.722;2022-11-20T08:14:27;-5.90;99.90
64796;DHT22;51229;51.980;6.722;2022-11-20T08:16:53;-5.90;99.90
64796;DHT22;51229;51.980;6.722;2022-11-20T08:19:19;-6.40;99.90
64796;DHT22;51229;51.980;6.722;2022-11-20T08:21:45;-6.70;99.90
64796;DHT22;51229;51.980;6.722;2022-11-20T08:24:13;-6.60;99.90
64796;DHT22;51229;51.980;6.722;2022-11-20T08:26:39;-6.60;99.90
64796;DHT22;51229;51.980;6.722;2022-11-20T08:29:06;-6.70;99.90
64796;DHT22;51229;51.980;6.722;2022-11-20T08:31:32;-6.60;99.90
64796;DHT22;51229;51.980;6.722;2022-11-20T08:33:58;-6.50;99.90
64796;DHT22;51229;51.980;6.722;2022-11-20T08:36:24;-6.00;99.90
64796;DHT22;51229;51.980;6.722;2022-11-20T08:38:51;-5.50;99.90
64796;DHT22;51229;51.980;6.722;2022-11-20T08:41:17;-4.90;99.90
64796;DHT22;51229;51.980;6.722;2022-11-20T08:44:00;-4.90;99.90
64796;DHT22;51229;51.980;6.722;2022-11-20T08:46:32;-4.80;99.90
64796;DHT22;51229;51.980;6.722;2022-11-20T08:48:59;-4.60;99.90
64796;DHT22;51229;51.980;6.722;2022-11-20T08:51:25;-3.50;99.90
64796;DHT22;51229;51.980;6.722;2022-11-20T08:53:50;-2.20;99.90
64796;DHT22;51229;51.980;6.722;2022-11-20T08:56:16;-1.30;99.90
64796;DHT22;51229;51.980;6.722;2022-11-20T08:58:43;-0.90;99.90
64796;DHT22;51229;51.980;6.722;2022-11-20T09:01:09;-0.10;99.90
64796;DHT22;51229;51.980;6.722;2022-11-20T09:03:35;0.20;99.90
64796;DHT22;51229;51.980;6.722;2022-11-20T09:06:03;0.80;99.90
64796;DHT22;51229;51.980;6.722;2022-11-20T09:08:30;0.90;99.90
64796;DHT22;51229;51.980;6.722;2022-11-20T09:10:57;0.90;99.90
64796;DHT22;51229;51.980;6.722;2022-11-20T09:13:24;1.40;99.90
64796;DHT22;51229;51.980;6.722;2022-11-20T09:15:54;1.50;99.90
64796;DHT22;51229;51.980;6.722;2022-11-20T09:18:20;1.50;99.90
64796;DHT22;51229;51.980;6.722;2022-11-20T09:20:47;1.10;99.90
64796;DHT22;51229;51.980;6.722;2022-11-20T09:23:12;1.00;99.90
64796;DHT22;51229;51.980;6.722;2022-11-20T09:25:38;1.50;99.90
64796;DHT22;51229;51.980;6.722;2022-11-20T09:28:04;1.70;99.90
64796;DHT22;51229;51.980;6.722;2022-11-20T09:30:30;2.30;99.90
64796;DHT22;51229;51.980;6.722;2022-11-20T09:32:56;2.50;99.90
64796;DHT22;51229;51.980;6.722;2022-11-20T09:35:22;2.70;99.90
64796;DHT22;51229;51.980;6.722;2022-11-20T09:37:48;2.80;99.90
64796;DHT22;51229;51.980;6.722;2022-11-20T09:40:27;3.10;99.90
64796;DHT22;51229;51.980;6.722;2022-11-20T09:42:58;3.70;99.90
64796;DHT22;51229;51.980;6.722;2022-11-20T09:51:21;4.50;99.90
64796;DHT22;51229;51.980;6.722;2022-11-20T09:54:06;5.80;99.90
64796;DHT22;51229;51.980;6.722;2022-11-20T09:56:39;5.80;99.90
64796;DHT22;51229;51.980;6.722;2022-11-20T09:59:23;4.70;99.90
64796;DHT22;51229;51.980;6.722;2022-11-20T10:01:52;5.60;99.90
64796;DHT22;51229;51.980;6.722;2022-11-20T10:04:19;6.10;99.90
64796;DHT22;51229;51.980;6.722;2022-11-20T10:09:34;5.50;99.90
64796;DHT22;51229;51.980;6.722;2022-11-20T10:12:33;6.20;99.90
64796;DHT22;51229;51.980;6.722;2022-11-20T10:18:16;7.20;99.90
64796;DHT22;51229;51.980;6.722;2022-11-20T10:20:49;7.80;99.90
64796;DHT22;51229;51.980;6.722;2022-11-20T10:29:11;8.00;95.20
64796;DHT22;51229;51.980;6.722;2022-11-20T10:31:40;5.40;99.90
64796;DHT22;51229;51.980;6.722;2022-11-20T10:34:23;3.80;99.90
64796;DHT22;51229;51.980;6.722;2022-11-20T10:37:00;3.10;99.90
64796;DHT22;51229;51.980;6.722;2022-11-20T10:39:45;3.80;99.90
64796;DHT22;51229;51.980;6.722;2022-11-20T10:42:14;5.00;99.90
64796;DHT22;51229;51.980;6.722;2022-11-20T10:44:49;6.00;99.90
64796;DHT22;51229;51.980;6.722;2022-11-20T10:47:31;5.30;99.90
64796;DHT22;51229;51.980;6.722;2022-11-20T10:50:01;4.00;99.90
64796;DHT22;51229;51.980;6.722;2022-11-20T10:52:47;2.40;99.90
64796;DHT22;51229;51.980;6.722;2022-11-20T10:55:45;2.10;99.90
64796;DHT22;51229;51.980;6.722;2022-11-20T10:58:23;2.80;99.90
64796;DHT22;51229;51.980;6.722;2022-11-20T11:00:50;2.50;99.90
64796;DHT22;51229;51.980;6.722;2022-11-20T11:03:31;2.90;99.90
64796;DHT22;51229;51.980;6.722;2022-11-20T11:06:10;3.10;99.90
64796;DHT22;51229;51.980;6.722;2022-11-20T11:08:39;2.70;99.90
64796;DHT22;51229;51.980;6.722;2022-11-20T11:11:26;2.40;99.90
64796;DHT22;51229;51.980;6.722;2022-11-20T11:13:53;2.40;99.90
64796;DHT22;51229;51.980;6.722;2022-11-20T11:16:26;2.00;99.90
64796;DHT22;51229;51.980;6.722;2022-11-20T11:19:02;2.00;99.90
64796;DHT22;51229;51.980;6.722;2022-11-20T11:21:28;2.40;99.90
64796;DHT22;51229;51.980;6.722;2022-11-20T11:24:03;2.00;99.90
64796;DHT22;51229;51.980;6.722;2022-11-20T11:26:29;1.90;99.90
64796;DHT22;51229;51.980;6.722;2022-11-20T11:29:03;2.40;99.90
64796;DHT22;51229;51.980;6.722;2022-11-20T11:31:34;2.00;99.90
64796;DHT22;51229;51.980;6.722;2022-11-20T11:34:13;1.40;99.90
64796;DHT22;51229;51.980;6.722;2022-11-20T11:36:39;1.90;99.90
64796;DHT22;51229;51.980;6.722;2022-11-20T11:39:14;1.50;99.90
64796;DHT22;51229;51.980;6.722;2022-11-20T11:41:41;1.20;99.90
64796;DHT22;51229;51.980;6.722;2022-11-20T11:44:20;1.90;99.90
64796;DHT22;51229;51.980;6.722;2022-11-20T11:47:17;1.80;99.90
64796;DHT22;51229;51.980;6.722;2022-11-20T11:49:46;1.70;99.90
64796;DHT22;51229;51.980;6.722;2022-11-20T11:52:18;2.30;99.90
64796;DHT22;51229;51.980;6.722;2022-11-20T11:54:58;2.50;99.90
64796;DHT22;51229;51.980;6.722;2022-11-20T11:57:46;1.60;99.90
64796;DHT22;51229;51.980;6.722;2022-11-20T12:00:17;1.80;99.90
64796;DHT22;51229;51.980;6.722;2022-11-20T12:05:17;1.50;99.90
64796;DHT22;51229;51.980;6.722;2022-11-20T12:07:54;1.50;99.90
64796;DHT22;51229;51.980;6.722;2022-11-20T12:10:41;2.20;99.90
64796;DHT22;51229;51.980;6.722;2022-11-20T12:13:49;1.50;99.90
64796;DHT22;51229;51.980;6.722;2022-11-20T12:16:19;1.80;99.90
64796;DHT22;51229;51.980;6.722;2022-11-20T12:18:48;2.00;99.90
64796;DHT22;51229;51.980;6.722;2022-11-20T12:21:30;2.40;99.90
64796;DHT22;51229;51.980;6.722;2022-11-20T12:26:59;2.00;99.90
64796;DHT22;51229;51.980;6.722;2022-11-20T12:34:53;1.40;99.90
64796;DHT22;51229;51.980;6.722;2022-11-20T12:37:30;1.40;99.90
64796;DHT22;51229;51.980;6.722;2022-11-20T12:40:07;1.30;99.90
64796;DHT22;51229;51.980;6.722;2022-11-20T12:42:57;1.20;99.90
64796;DHT22;51229;51.980;6.722;2022-11-20T12:48:26;0.80;99.90
64796;DHT22;51229;51.980;6.722;2022-11-20T13:01:35;0.80;99.90
64796;DHT22;51229;51.980;6.722;2022-11-20T13:06:51;0.70;99.90
64796;DHT22;51229;51.980;6.722;2022-11-20T13:09:20;0.90;99.90
64796;DHT22;51229;51.980;6.722;2022-11-20T13:11:48;0.80;99.90
64796;DHT22;51229;51.980;6.722;2022-11-20T13:14:32;0.50;99.90
64796;DHT22;51229;51.980;6.722;2022-11-20T13:19:53;0.40;99.90
64796;DHT22;51229;51.980;6.722;2022-11-20T13:22:42;0.50;99.90
64796;DHT22;51229;51.980;6.722;2022-11-20T13:25:10;0.50;99.90
64796;DHT22;51229;51.980;6.722;2022-11-20T13:27:35;0.40;99.90
64796;DHT22;51229;51.980;6.722;2022-11-20T13:30:15;0.30;99.90
64796;DHT22;51229;51.980;6.722;2022-11-20T13:33:20;0.60;99.90
64796;DHT22;51229;51.980;6.722;2022-11-20T13:36:06;0.70;99.90
64796;DHT22;51229;51.980;6.722;2022-11-20T13:38:50;0.50;99.90
64796;DHT22;51229;51.980;6.722;2022-11-20T13:44:10;0.40;99.90
64796;DHT22;51229;51.980;6.722;2022-11-20T13:46:44;0.40;99.90
64796;DHT22;51229;51.980;6.722;2022-11-20T13:49:32;0.40;99.90
64796;DHT22;51229;51.980;6.722;2022-11-20T13:52:24;0.30;99.90
64796;DHT22;51229;51.980;6.722;2022-11-20T13:55:16;0.30;99.90
64796;DHT22;51229;51.980;6.722;2022-11-20T13:57:47;0.20;99.90
64796;DHT22;51229;51.980;6.722;2022-11-20T14:00:18;0.30;99.90
64796;DHT22;51229;51.980;6.722;2022-11-20T14:06:02;0.20;99.90
64796;DHT22;51229;51.980;6.722;2022-11-20T14:08:46;0.30;99.90
64796;DHT22;51229;51.980;6.722;2022-11-20T14:11:14;0.20;99.90
64796;DHT22;51229;51.980;6.722;2022-11-20T14:13:56;0.10;99.90
64796;DHT22;51229;51.980;6.722;2022-11-20T14:16:24;0.00;99.90
64796;DHT22;51229;51.980;6.722;2022-11-20T14:18:50;0.10;99.90
64796;DHT22;51229;51.980;6.722;2022-11-20T14:21:28;-0.10;99.90
64796;DHT22;51229;51.980;6.722;2022-11-20T14:24:22;0.10;99.90
64796;DHT22;51229;51.980;6.722;2022-11-20T14:26:49;0.10;99.90
64796;DHT22;51229;51.980;6.722;2022-11-20T14:29:23;0.00;99.90
64796;DHT22;51229;51.980;6.722;2022-11-20T14:31:53;0.00;99.90
64796;DHT22;51229;51.980;6.722;2022-11-20T14:34:25;-0.20;99.90
64796;DHT22;51229;51.980;6.722;2022-11-20T14:36:56;0.10;99.90
64796;DHT22;51229;51.980;6.722;2022-11-20T14:39:28;0.00;99.90
64796;DHT22;51229;51.980;6.722;2022-11-20T14:41:55;-0.10;99.90
64796;DHT22;51229;51.980;6.722;2022-11-20T14:44:26;-0.20;99.90
64796;DHT22;51229;51.980;6.722;2022-11-20T14:46:52;-0.20;99.90
64796;DHT22;51229;51.980;6.722;2022-11-20T14:49:19;-0.20;99.90
64796;DHT22;51229;51.980;6.722;2022-11-20T14:51:45;-0.30;99.90
64796;DHT22;51229;51.980;6.722;2022-11-20T14:54:12;-0.40;99.90
64796;DHT22;51229;51.980;6.722;2022-11-20T14:56:39;-0.50;99.90
64796;DHT22;51229;51.980;6.722;2022-11-20T14:59:05;-0.40;99.90
64796;DHT22;51229;51.980;6.722;2022-11-20T15:01:33;-0.50;99.90
64796;DHT22;51229;51.980;6.722;2022-11-20T15:04:01;-0.30;99.90
64796;DHT22;51229;51.980;6.722;2022-11-20T15:06:27;-0.40;99.90
64796;DHT22;51229;51.980;6.722;2022-11-20T15:08:54;-0.50;99.90
64796;DHT22;51229;51.980;6.722;2022-11-20T15:11:30;-0.60;99.90
64796;DHT22;51229;51.980;6.722;2022-11-20T15:13:57;-0.60;99.90
64796;DHT22;51229;51.980;6.722;2022-11-20T15:16:23;-0.40;99.90
64796;DHT22;51229;51.980;6.722;2022-11-20T15:18:50;-0.40;99.90
64796;DHT22;51229;51.980;6.722;2022-11-20T15:21:18;-0.40;99.90
64796;DHT22;51229;51.980;6.722;2022-11-20T15:23:46;-0.30;99.90
64796;DHT22;51229;51.980;6.722;2022-11-20T15:26:14;-0.30;99.90
64796;DHT22;51229;51.980;6.722;2022-11-20T15:28:42;-0.20;99.90
64796;DHT22;51229;51.980;6.722;2022-11-20T15:31:13;-0.50;99.90
64796;DHT22;51229;51.980;6.722;2022-11-20T15:33:38;-0.60;99.90
64796;DHT22;51229;51.980;6.722;2022-11-20T15:36:04;-0.70;99.90
64796;DHT22;51229;51.980;6.722;2022-11-20T15:38:30;-0.70;99.90
64796;DHT22;51229;51.980;6.722;2022-11-20T15:40:56;-0.80;99.90
64796;DHT22;51229;51.980;6.722;2022-11-20T15:43:22;-0.80;99.90
64796;DHT22;51229;51.980;6.722;2022-11-20T15:45:50;-0.80;99.90
64796;DHT22;51229;51.980;6.722;2022-11-20T15:48:23;-0.80;99.90
64796;DHT22;51229;51.980;6.722;2022-11-20T15:53:39;-1.00;99.90
64796;DHT22;51229;51.980;6.722;2022-11-20T15:56:06;-1.00;99.90
64796;DHT22;51229;51.980;6.722;2022-11-20T15:58:32;-1.10;99.90
64796;DHT22;51229;51.980;6.722;2022-11-20T16:00:57;-1.00;99.90
64796;DHT22;51229;51.980;6.722;2022-11-20T16:03:23;-1.10;99.90
64796;DHT22;51229;51.980;6.722;2022-11-20T16:05:49;-1.10;99.90
64796;DHT22;51229;51.980;6.722;2022-11-20T16:08:15;-1.20;99.90
64796;DHT22;51229;51.980;6.722;2022-11-20T16:10:41;-1.10;99.90
64796;DHT22;51229;51.980;6.722;2022-11-20T16:13:17;-1.10;99.90
64796;DHT22;51229;51.980;6.722;2022-11-20T16:16:07;-1.20;99.90
64796;DHT22;51229;51.980;6.722;2022-11-20T16:18:34;-1.20;99.90
64796;DHT22;51229;51.980;6.722;2022-11-20T16:21:00;-1.20;99.90
64796;DHT22;51229;51.980;6.722;2022-11-20T16:23:26;-1.30;99.90
64796;DHT22;51229;51.980;6.722;2022-11-20T16:25:52;-1.20;99.90
64796;DHT22;51229;51.980;6.722;2022-11-20T16:28:18;-1.10;99.90
64796;DHT22;51229;51.980;6.722;2022-11-20T16:30:45;-1.30;99.90
64796;DHT22;51229;51.980;6.722;2022-11-20T16:33:16;-1.30;99.90
64796;DHT22;51229;51.980;6.722;2022-11-20T16:35:42;-1.20;99.90
64796;DHT22;51229;51.980;6.722;2022-11-20T16:38:08;-1.20;99.90
64796;DHT22;51229;51.980;6.722;2022-11-20T16:40:34;-1.20;99.90
64796;DHT22;51229;51.980;6.722;2022-11-20T16:43:09;-1.30;99.90
64796;DHT22;51229;51.980;6.722;2022-11-20T16:45:40;-1.20;99.90
64796;DHT22;51229;51.980;6.722;2022-11-20T16:48:06;-1.20;99.90
64796;DHT22;51229;51.980;6.722;2022-11-20T16:50:32;-1.20;99.90